Amanda, Ohio
Current Conditions -  °F | °C
As of 4:53 PM on Sunday 23 Nov 2014 (Local Time) from KLHQ Reporting Station
Broken Clouds Broken Clouds  
Wind Chill: 61°   Ceiling: 11000
Heat Index: 61°   Visibility: 10mi
Dew Point: 40°   Wind: 14mph
Humidity: 46%   Direction: 140°SE
Pressure: 29.7"   Gusts: NA
Location:  39.65°N, 82.74°W
Report Text: KLHQ 232153Z AUTO 14012KT 10SM BKN110 16/04 A2970 RMK AO2 SLP056 T01610044
Loading
Personal Weather Stations






























Interactive Weather Map New forecast layout! Learn more

10-Day Weather Forecast

Advertisements
Track Severe Weather on mobile